Etusivu
METAR-TAF:

METAR-TAF

Lentoasemat :

Baraboo Wisconsin Dells Airport

Baraboo / Wisconsin Dells, Wisconsin, Yhdysvallat

Leveyspiiri: 43-31-19N, Pituuspiiri: 089-46-15W, korkeus merenpinnasta: 298 m

Tämänhetkinen sää

Tämä raportti tehtiin 26 minuuttia sitten, kello 09.35 UTC
Tuuli 3 kn luoteesta
Lämpötila -3°C
Kosteus 86%
Ilmanpaine 1018 hPa
Näkyvyys: 16.1 km
Pilvistä 1500 ft:n korkeudessa

METAR: KDLL 280935Z AUTO 31003KT 10SM OVC015 M03/M05 A3005 RMK AO2 T10331054

Aika: 04:01 (10:01 UTC)


TAF: puuttuu

Säähavainnot ja -ennusteet yli 4000 lentoasemalta (METAR- ja TAF-raportit).

Käytössä olevat sääasemat on merkitty karttaan keltaisilla ja punaisilla pisteillä.

Aseta hiiri pisteen päälle nähdäksesi sääaseman nimen.

Klikkaa sitten nähdäksesi säähavainnot ja -ennusteet.

Kartan vaihtaminen: klikkaa mustalla rastilla varustettuja vihreitä pisteitä, niin voit zoomata sisään; viivalla varustettua vihreää pistettä, niin voit zoomata ulos tai vihreitä nuolia, niin pääset viereisille kartoille.


METAR-TAF: